Time;durP1;ratioP1;P1;durP2;ratioP2;P2;SDS_P1;SDS_P2;PMS_P1;PMS_P2;Temp;Humidity;BMP_temperature;BMP_pressure;BME280_temperature;BME280_humidity;BME280_pressure;Samples;Min_cycle;Max_cycle;Signal;HPM_P1;HPM_P2
2023/05/27 00:01:56;;;;;;;7.60;5.77;;;16.20;99.90;;;;;;5088953;28;20548;-48
2023/05/27 00:04:23;;;;;;;9.40;5.87;;;16.00;99.90;;;;;;5089469;28;20943;-50
2023/05/27 00:06:50;;;;;;;7.67;5.60;;;16.00;99.90;;;;;;5089621;28;20473;-48
2023/05/27 00:09:18;;;;;;;10.20;5.83;;;16.10;99.90;;;;;;5089836;28;20442;-47
2023/05/27 00:11:45;;;;;;;7.80;5.50;;;16.10;99.90;;;;;;5088940;28;20451;-48
2023/05/27 00:14:12;;;;;;;9.03;6.20;;;16.00;99.90;;;;;;5089475;28;21043;-47
2023/05/27 00:16:39;;;;;;;8.90;5.90;;;16.00;99.90;;;;;;5089483;28;20529;-47
2023/05/27 00:19:06;;;;;;;9.93;5.63;;;16.00;99.90;;;;;;5090117;28;20480;-48
2023/05/27 00:21:33;;;;;;;7.70;5.53;;;16.00;99.90;;;;;;5090415;28;20448;-48
2023/05/27 00:23:59;;;;;;;7.43;5.57;;;16.00;99.90;;;;;;5090384;28;20527;-49
2023/05/27 00:26:28;;;;;;;9.50;5.80;;;16.00;99.90;;;;;;5089979;28;20529;-48
2023/05/27 00:28:55;;;;;;;7.83;6.03;;;16.00;99.90;;;;;;5090239;28;20495;-47
2023/05/27 00:31:22;;;;;;;6.60;4.90;;;15.90;99.90;;;;;;5088837;28;20896;-47
2023/05/27 00:33:50;;;;;;;8.20;5.07;;;15.80;99.90;;;;;;5088576;28;20465;-47
2023/05/27 00:36:17;;;;;;;7.47;5.30;;;15.90;99.90;;;;;;5087187;28;20550;-48
2023/05/27 00:38:44;;;;;;;7.43;5.63;;;15.90;99.90;;;;;;5089137;28;20571;-48
2023/05/27 00:41:12;;;;;;;7.00;5.60;;;15.90;99.90;;;;;;5088885;28;20509;-49
2023/05/27 00:43:41;;;;;;;7.40;6.20;;;15.70;99.90;;;;;;5088611;28;20463;-49
2023/05/27 00:46:09;;;;;;;7.77;5.47;;;15.70;99.90;;;;;;5089555;28;20981;-47
2023/05/27 00:48:35;;;;;;;7.50;5.87;;;15.60;99.90;;;;;;5093179;28;20465;-48
2023/05/27 00:51:03;;;;;;;6.90;5.00;;;15.70;99.90;;;;;;5093390;28;20473;-47
2023/05/27 00:53:37;;;;;;;8.30;6.70;;;15.70;99.90;;;;;;5094056;28;20539;-48
2023/05/27 00:56:05;;;;;;;7.17;5.53;;;15.70;99.90;;;;;;5093579;28;20936;-48
2023/05/27 00:58:32;;;;;;;7.97;6.07;;;15.70;99.90;;;;;;5091084;28;21038;-48
2023/05/27 01:01:00;;;;;;;7.17;5.97;;;15.70;99.90;;;;;;5092953;28;21028;-46
2023/05/27 01:03:28;;;;;;;9.93;5.20;;;15.70;99.90;;;;;;5092704;28;20541;-48
2023/05/27 01:06:03;;;;;;;7.43;5.70;;;15.70;99.90;;;;;;5092595;28;20444;-47
2023/05/27 01:08:38;;;;;;;7.47;5.67;;;15.70;99.90;;;;;;5093097;28;20475;-47
2023/05/27 01:11:08;;;;;;;7.17;5.60;;;15.70;99.90;;;;;;5092787;28;20889;-49
2023/05/27 01:13:40;;;;;;;7.57;5.03;;;15.70;99.90;;;;;;5093252;28;20496;-48
2023/05/27 01:16:12;;;;;;;7.77;5.70;;;15.70;99.90;;;;;;5093419;28;20465;-47
2023/05/27 01:18:41;;;;;;;6.83;5.87;;;15.70;99.90;;;;;;5093601;28;20484;-47
2023/05/27 01:21:12;;;;;;;6.40;4.90;;;15.70;99.90;;;;;;5093686;28;20447;-48
2023/05/27 01:23:42;;;;;;;7.53;6.30;;;15.70;99.90;;;;;;5093202;28;20541;-47
2023/05/27 01:26:09;;;;;;;7.80;5.40;;;15.70;99.90;;;;;;5092951;28;21028;-48
2023/05/27 01:28:37;;;;;;;10.00;5.93;;;15.60;99.90;;;;;;5093381;28;20471;-48
2023/05/27 01:31:11;;;;;;;9.00;5.23;;;15.40;99.90;;;;;;5091789;28;20754;-47
2023/05/27 01:33:41;;;;;;;10.43;6.03;;;15.20;99.90;;;;;;5092468;28;20549;-47
2023/05/27 01:36:13;;;;;;;7.87;5.40;;;15.00;99.90;;;;;;5090883;28;21028;-48
2023/05/27 01:38:44;;;;;;;8.03;5.23;;;15.00;99.90;;;;;;5092967;28;20468;-47
2023/05/27 01:41:11;;;;;;;7.60;5.63;;;15.00;99.90;;;;;;5093254;28;20477;-48
2023/05/27 01:43:39;;;;;;;6.50;5.50;;;14.90;99.90;;;;;;5092690;28;20546;-47
2023/05/27 01:46:06;;;;;;;6.00;5.27;;;14.90;99.90;;;;;;5092021;28;20446;-47
2023/05/27 01:48:33;;;;;;;9.37;6.37;;;14.80;99.90;;;;;;5092139;28;20842;-48
2023/05/27 01:51:00;;;;;;;8.53;6.57;;;14.90;99.90;;;;;;5092208;28;20519;-47
2023/05/27 01:53:27;;;;;;;9.03;6.20;;;15.10;99.90;;;;;;5091862;28;20542;-47
2023/05/27 01:55:55;;;;;;;7.00;5.83;;;15.20;99.90;;;;;;5091655;28;20528;-47
2023/05/27 01:58:22;;;;;;;6.13;5.53;;;15.30;99.90;;;;;;5090118;28;20469;-49
2023/05/27 02:00:49;;;;;;;7.00;5.60;;;15.40;99.90;;;;;;5092552;28;20564;-48
2023/05/27 02:03:16;;;;;;;7.77;6.00;;;15.40;99.90;;;;;;5091996;28;20492;-47
2023/05/27 02:05:44;;;;;;;9.70;6.57;;;15.20;99.90;;;;;;5092072;28;20474;-48
2023/05/27 02:08:11;;;;;;;6.40;5.33;;;15.00;99.90;;;;;;5092416;28;20451;-47
2023/05/27 02:10:38;;;;;;;7.50;5.47;;;14.90;99.90;;;;;;5092431;28;20601;-48
2023/05/27 02:13:06;;;;;;;8.27;7.00;;;14.90;99.90;;;;;;5091983;28;20551;-47
2023/05/27 02:15:33;;;;;;;7.70;5.80;;;14.80;99.90;;;;;;5092143;28;20527;-47
2023/05/27 02:18:00;;;;;;;9.10;5.70;;;14.80;99.90;;;;;;5092287;28;20471;-48
2023/05/27 02:20:29;;;;;;;9.00;6.20;;;14.80;99.90;;;;;;5092262;28;20846;-49
2023/05/27 02:22:55;;;;;;;9.47;6.70;;;14.70;99.90;;;;;;5091816;28;20503;-48
2023/05/27 02:25:22;;;;;;;7.27;5.30;;;14.80;99.90;;;;;;5091819;28;20531;-48
2023/05/27 02:27:52;;;;;;;7.03;6.20;;;14.80;99.90;;;;;;5092604;28;20472;-47
2023/05/27 02:30:20;;;;;;;8.20;6.10;;;14.90;99.90;;;;;;5090789;28;20479;-47
2023/05/27 02:32:47;;;;;;;7.47;6.30;;;14.90;99.90;;;;;;5091863;28;20499;-48
2023/05/27 02:35:15;;;;;;;6.37;5.17;;;14.90;99.90;;;;;;5091726;28;20534;-48
2023/05/27 02:37:42;;;;;;;12.67;6.87;;;15.00;99.90;;;;;;5091912;28;20822;-47
2023/05/27 02:40:10;;;;;;;8.80;6.43;;;15.10;99.90;;;;;;5091954;28;20574;-48
2023/05/27 02:42:37;;;;;;;9.20;5.50;;;15.10;99.90;;;;;;5091382;28;20464;-49
2023/05/27 02:45:05;;;;;;;5.37;4.83;;;15.10;99.90;;;;;;5091866;28;20444;-50
2023/05/27 02:47:34;;;;;;;6.63;5.53;;;15.20;99.90;;;;;;5091235;28;20549;-46
2023/05/27 02:50:00;;;;;;;6.47;5.47;;;15.30;99.90;;;;;;5090993;28;20432;-48
2023/05/27 02:52:27;;;;;;;8.00;5.63;;;15.30;99.90;;;;;;5090634;28;20546;-46
2023/05/27 02:54:54;;;;;;;8.20;6.00;;;15.30;99.90;;;;;;5090974;28;20528;-47
2023/05/27 02:57:21;;;;;;;8.07;5.90;;;15.20;99.90;;;;;;5089984;28;20926;-46
2023/05/27 02:59:48;;;;;;;9.77;6.17;;;15.20;99.90;;;;;;5088970;28;20567;-48
2023/05/27 03:02:15;;;;;;;8.23;5.80;;;15.20;99.90;;;;;;5091137;28;20817;-49
2023/05/27 03:04:44;;;;;;;8.07;6.63;;;15.30;99.90;;;;;;5092040;28;20493;-46
2023/05/27 03:07:11;;;;;;;8.00;6.77;;;15.30;99.90;;;;;;5090549;28;20868;-47
2023/05/27 03:09:38;;;;;;;7.77;6.00;;;15.30;99.90;;;;;;5090105;28;20528;-46
2023/05/27 03:12:06;;;;;;;8.60;6.60;;;15.30;99.90;;;;;;5090548;28;20541;-47
2023/05/27 03:14:33;;;;;;;7.93;5.83;;;15.30;99.90;;;;;;5090463;28;20444;-46
2023/05/27 03:17:00;;;;;;;8.53;6.30;;;15.30;99.90;;;;;;5090284;28;20536;-48
2023/05/27 03:19:27;;;;;;;10.60;6.40;;;15.30;99.90;;;;;;5090665;28;20438;-46
2023/05/27 03:21:55;;;;;;;11.53;6.50;;;15.40;99.90;;;;;;5090135;28;20500;-46
2023/05/27 03:24:23;;;;;;;8.47;6.43;;;15.40;99.90;;;;;;5090438;28;20829;-46
2023/05/27 03:26:50;;;;;;;9.07;6.27;;;15.40;99.90;;;;;;5089834;28;20470;-46
2023/05/27 03:29:16;;;;;;;6.77;6.07;;;15.30;99.90;;;;;;5090226;28;20475;-48
2023/05/27 03:31:43;;;;;;;6.83;5.60;;;15.10;99.90;;;;;;5088112;28;20479;-46
2023/05/27 03:34:10;;;;;;;7.77;5.77;;;15.00;99.90;;;;;;5090397;28;20561;-44
2023/05/27 03:36:38;;;;;;;8.13;5.13;;;14.90;99.90;;;;;;5088601;28;20439;-47
2023/05/27 03:39:06;;;;;;;7.50;5.83;;;14.90;99.90;;;;;;5090812;28;20489;-49
2023/05/27 03:41:34;;;;;;;7.80;5.97;;;15.00;99.90;;;;;;5090256;28;20478;-47
2023/05/27 03:44:01;;;;;;;7.87;5.70;;;14.90;99.90;;;;;;5090395;28;20493;-48
2023/05/27 03:46:28;;;;;;;8.10;5.90;;;14.80;99.90;;;;;;5089315;28;20448;-47
2023/05/27 03:48:55;;;;;;;7.87;5.77;;;14.60;99.90;;;;;;5089746;28;21019;-47
2023/05/27 03:51:22;;;;;;;9.47;7.17;;;14.60;99.90;;;;;;5091231;28;20470;-46
2023/05/27 03:53:49;;;;;;;8.20;6.10;;;14.70;99.90;;;;;;5090419;28;20543;-46
2023/05/27 03:56:17;;;;;;;8.00;6.80;;;14.80;99.90;;;;;;5089681;28;20439;-46
2023/05/27 03:58:44;;;;;;;8.40;6.20;;;14.80;99.90;;;;;;5088172;28;20535;-47
2023/05/27 04:01:11;;;;;;;8.93;6.03;;;14.90;99.90;;;;;;5090328;28;20474;-47
2023/05/27 04:03:39;;;;;;;7.67;5.90;;;14.90;99.90;;;;;;5089867;28;20488;-46
2023/05/27 04:06:06;;;;;;;9.37;5.73;;;14.80;99.90;;;;;;5090270;28;20843;-49
2023/05/27 04:08:35;;;;;;;6.63;5.23;;;14.90;99.90;;;;;;5090753;28;20569;-46
2023/05/27 04:11:02;;;;;;;9.20;6.10;;;14.90;99.90;;;;;;5089965;28;20479;-46
2023/05/27 04:13:30;;;;;;;10.50;6.90;;;15.00;99.90;;;;;;5090085;28;20526;-47
2023/05/27 04:15:59;;;;;;;7.30;6.07;;;15.10;99.90;;;;;;5089959;28;20524;-48
2023/05/27 04:18:26;;;;;;;6.73;5.90;;;15.20;99.90;;;;;;5089478;28;20521;-46
2023/05/27 04:20:53;;;;;;;6.83;5.20;;;15.20;99.90;;;;;;5092969;28;20556;-48
2023/05/27 04:23:20;;;;;;;7.37;5.80;;;15.20;99.90;;;;;;5095536;28;20504;-46
2023/05/27 04:25:48;;;;;;;9.60;6.77;;;15.00;99.90;;;;;;5096456;28;20522;-46
2023/05/27 04:28:16;;;;;;;7.93;7.13;;;15.00;99.90;;;;;;5096366;28;20447;-47
2023/05/27 04:30:47;;;;;;;7.57;6.10;;;15.10;99.90;;;;;;5094571;28;20981;-47
2023/05/27 04:33:16;;;;;;;9.53;6.83;;;15.20;99.90;;;;;;5096078;28;20471;-46
2023/05/27 04:35:44;;;;;;;8.60;6.80;;;15.20;99.90;;;;;;5094935;28;20923;-49
2023/05/27 04:38:15;;;;;;;7.00;5.63;;;15.20;99.90;;;;;;5097006;28;20443;-46
2023/05/27 04:40:44;;;;;;;9.07;7.27;;;15.20;99.90;;;;;;5097403;28;20475;-47
2023/05/27 04:43:14;;;;;;;11.90;7.30;;;15.20;99.90;;;;;;5095725;28;20463;-46
2023/05/27 04:45:41;;;;;;;10.80;8.27;;;15.10;99.90;;;;;;5095827;28;20454;-47
2023/05/27 04:48:10;;;;;;;10.13;6.47;;;14.90;99.90;;;;;;5096193;28;20451;-48
2023/05/27 04:50:37;;;;;;;8.17;6.67;;;14.80;99.90;;;;;;5096308;28;20532;-46
2023/05/27 04:53:04;;;;;;;9.40;7.30;;;14.70;99.90;;;;;;5095912;28;20554;-46
2023/05/27 04:55:32;;;;;;;9.40;6.37;;;14.70;99.90;;;;;;5095468;28;20518;-46
2023/05/27 04:58:02;;;;;;;10.90;6.47;;;14.60;99.90;;;;;;5094287;28;20471;-49
2023/05/27 05:00:38;;;;;;;8.40;6.73;;;14.70;99.90;;;;;;5096968;28;20852;-48
2023/05/27 05:03:06;;;;;;;6.80;6.10;;;14.80;99.90;;;;;;5095684;28;20499;-47
2023/05/27 05:05:35;;;;;;;9.23;6.90;;;14.90;99.90;;;;;;5095629;28;20439;-46
2023/05/27 05:08:04;;;;;;;10.10;7.03;;;15.00;99.90;;;;;;5096281;28;21005;-47
2023/05/27 05:10:31;;;;;;;8.17;6.97;;;15.00;99.90;;;;;;5095554;28;20441;-47
2023/05/27 05:12:58;;;;;;;7.60;6.23;;;15.10;99.90;;;;;;5095286;28;20501;-47
2023/05/27 05:15:25;;;;;;;9.10;7.50;;;15.20;99.90;;;;;;5095801;28;21219;-48
2023/05/27 05:17:52;;;;;;;10.60;7.87;;;15.30;99.90;;;;;;5096609;28;20900;-47
2023/05/27 05:20:19;;;;;;;10.03;7.20;;;15.30;99.90;;;;;;5096456;28;20512;-46
2023/05/27 05:22:48;;;;;;;10.30;6.87;;;15.50;99.90;;;;;;5095905;28;20546;-48
2023/05/27 05:25:15;;;;;;;11.80;9.23;;;15.50;99.90;;;;;;5097019;28;20540;-47
2023/05/27 05:27:43;;;;;;;9.03;7.60;;;15.60;99.90;;;;;;5096068;28;20487;-47
2023/05/27 05:30:10;;;;;;;9.83;7.47;;;15.70;99.90;;;;;;5093543;28;20482;-47
2023/05/27 05:32:37;;;;;;;10.87;7.93;;;15.70;99.90;;;;;;5093678;28;20986;-46
2023/05/27 05:35:04;;;;;;;9.37;7.17;;;15.70;99.90;;;;;;5093219;28;20500;-46
2023/05/27 05:37:31;;;;;;;8.47;6.83;;;15.60;99.90;;;;;;5093286;28;20481;-47
2023/05/27 05:39:59;;;;;;;8.87;7.50;;;15.50;99.90;;;;;;5092483;28;20487;-46
2023/05/27 05:42:26;;;;;;;9.50;8.20;;;15.50;99.90;;;;;;5091996;28;20542;-46
2023/05/27 05:44:53;;;;;;;8.73;7.63;;;15.40;99.90;;;;;;5092322;28;20524;-46
2023/05/27 05:47:20;;;;;;;7.17;6.40;;;15.40;99.90;;;;;;5092194;28;20530;-46
2023/05/27 05:49:47;;;;;;;9.80;7.30;;;15.50;99.90;;;;;;5090531;28;20952;-47
2023/05/27 05:52:14;;;;;;;10.57;7.00;;;15.50;99.90;;;;;;5092413;28;20498;-47
2023/05/27 05:54:41;;;;;;;9.07;6.50;;;15.50;99.90;;;;;;5092270;28;20573;-45
2023/05/27 05:57:09;;;;;;;9.50;7.00;;;15.50;99.90;;;;;;5085943;28;20860;-47
2023/05/27 05:59:36;;;;;;;13.50;7.43;;;15.50;99.90;;;;;;5079020;28;20955;-46
2023/05/27 06:02:03;;;;;;;8.50;6.90;;;15.60;99.90;;;;;;5087818;28;20644;-45
2023/05/27 06:04:30;;;;;;;7.67;6.50;;;15.70;99.90;;;;;;5090706;28;20546;-48
2023/05/27 06:06:57;;;;;;;8.60;7.13;;;15.80;99.90;;;;;;5088470;28;20518;-47
2023/05/27 06:09:24;;;;;;;8.00;7.10;;;15.90;99.90;;;;;;5086444;28;20495;-47
2023/05/27 06:11:52;;;;;;;10.20;6.40;;;16.10;99.90;;;;;;5086413;28;20472;-47
2023/05/27 06:14:22;;;;;;;7.20;6.50;;;16.20;99.90;;;;;;5091193;28;20441;-46
2023/05/27 06:16:49;;;;;;;7.70;6.70;;;16.20;99.90;;;;;;5082188;28;20536;-47
2023/05/27 06:19:16;;;;;;;8.17;6.17;;;16.20;99.90;;;;;;5089429;28;20448;-46
2023/05/27 06:21:43;;;;;;;9.47;7.03;;;16.10;99.90;;;;;;5090869;28;20937;-50
2023/05/27 06:24:10;;;;;;;7.17;6.47;;;16.30;99.90;;;;;;5091605;28;20478;-46
2023/05/27 06:26:37;;;;;;;9.10;7.30;;;16.30;99.90;;;;;;5084919;28;20449;-47
2023/05/27 06:29:03;;;;;;;8.87;6.57;;;16.30;99.90;;;;;;5089183;28;20974;-46
2023/05/27 06:31:32;;;;;;;8.27;6.20;;;16.30;99.90;;;;;;5087417;28;20544;-47
2023/05/27 06:34:00;;;;;;;8.40;6.47;;;16.30;99.90;;;;;;5091762;28;20457;-47
2023/05/27 06:36:26;;;;;;;10.10;6.53;;;16.30;99.90;;;;;;5088156;28;20479;-47
2023/05/27 06:38:54;;;;;;;7.90;6.37;;;16.40;99.90;;;;;;5092173;28;20439;-47
2023/05/27 06:41:21;;;;;;;10.10;7.37;;;16.40;99.90;;;;;;5091811;28;20562;-46
2023/05/27 06:43:48;;;;;;;7.83;6.70;;;16.40;99.90;;;;;;5090435;28;20490;-47
2023/05/27 06:46:15;;;;;;;11.30;7.87;;;16.40;99.90;;;;;;5091612;28;20537;-47
2023/05/27 06:48:43;;;;;;;7.30;6.57;;;16.60;99.90;;;;;;5087092;28;20531;-49
2023/05/27 06:51:10;;;;;;;8.40;7.07;;;16.60;99.90;;;;;;5091785;28;20522;-47
2023/05/27 06:53:37;;;;;;;9.23;7.83;;;16.60;99.90;;;;;;5091376;28;20846;-47
2023/05/27 06:56:04;;;;;;;8.70;7.63;;;16.50;99.90;;;;;;5091419;28;20439;-47
2023/05/27 06:58:31;;;;;;;10.17;7.40;;;16.50;99.90;;;;;;5089602;28;20536;-48
2023/05/27 07:00:58;;;;;;;8.20;6.87;;;16.50;99.90;;;;;;5091070;28;20501;-49
2023/05/27 07:03:25;;;;;;;10.70;7.57;;;16.60;99.90;;;;;;5090954;28;20496;-47
2023/05/27 07:05:53;;;;;;;7.07;6.27;;;16.60;99.90;;;;;;5091043;28;20475;-47
2023/05/27 07:08:21;;;;;;;8.17;6.40;;;16.60;99.90;;;;;;5091365;28;20477;-46
2023/05/27 07:10:48;;;;;;;8.53;6.67;;;16.60;99.90;;;;;;5090018;28;20927;-47
2023/05/27 07:13:15;;;;;;;8.50;7.07;;;16.70;99.90;;;;;;5090946;28;20523;-47
2023/05/27 07:15:43;;;;;;;10.20;7.30;;;16.80;99.90;;;;;;5090877;28;20449;-47
2023/05/27 07:18:10;;;;;;;8.17;7.23;;;16.80;99.90;;;;;;5091117;28;20532;-46
2023/05/27 07:20:36;;;;;;;10.30;7.43;;;16.70;99.90;;;;;;5091120;28;20481;-47
2023/05/27 07:23:05;;;;;;;8.03;6.77;;;16.60;99.90;;;;;;5089788;28;20571;-49
2023/05/27 07:25:32;;;;;;;10.23;6.83;;;16.60;99.90;;;;;;5090020;28;20452;-47
2023/05/27 07:27:59;;;;;;;8.00;6.40;;;16.60;99.90;;;;;;5090657;28;20860;-46
2023/05/27 07:30:26;;;;;;;9.90;6.90;;;16.50;99.90;;;;;;5088585;28;20536;-47
2023/05/27 07:32:53;;;;;;;9.23;7.27;;;16.50;99.90;;;;;;5089672;28;20501;-50
2023/05/27 07:35:20;;;;;;;10.20;7.60;;;16.50;99.90;;;;;;5090068;28;21192;-47
2023/05/27 07:37:47;;;;;;;13.90;7.97;;;16.60;99.90;;;;;;5088951;28;20438;-47
2023/05/27 07:40:15;;;;;;;10.23;8.23;;;16.70;99.90;;;;;;5090847;28;20528;-47
2023/05/27 07:42:42;;;;;;;10.30;7.40;;;16.80;99.90;;;;;;5088260;28;20563;-49
2023/05/27 07:45:10;;;;;;;9.50;7.50;;;16.70;99.90;;;;;;5088729;28;20470;-45
2023/05/27 07:47:37;;;;;;;9.00;7.27;;;16.80;99.90;;;;;;5090300;28;20995;-47
2023/05/27 07:50:04;;;;;;;9.43;6.97;;;16.80;99.90;;;;;;5090145;28;20518;-47
2023/05/27 07:52:31;;;;;;;8.37;6.40;;;16.90;99.90;;;;;;5089580;28;20548;-47
2023/05/27 07:54:58;;;;;;;6.97;5.80;;;17.10;99.90;;;;;;5089454;28;20518;-46
2023/05/27 07:57:26;;;;;;;8.90;6.50;;;17.30;99.90;;;;;;5089637;28;20529;-47
2023/05/27 07:59:53;;;;;;;7.13;5.47;;;17.40;99.90;;;;;;5087833;28;20554;-48
2023/05/27 08:02:21;;;;;;;10.27;6.93;;;17.60;99.90;;;;;;5089582;28;20574;-47
2023/05/27 08:04:48;;;;;;;6.40;5.73;;;17.60;99.90;;;;;;5090487;28;20489;-46
2023/05/27 08:07:15;;;;;;;8.17;6.07;;;17.70;99.90;;;;;;5090071;28;20470;-46
2023/05/27 08:09:42;;;;;;;9.63;6.03;;;17.70;99.90;;;;;;5089731;28;20530;-45
2023/05/27 08:12:09;;;;;;;8.67;7.17;;;17.90;99.90;;;;;;5088717;28;20545;-47
2023/05/27 08:14:37;;;;;;;8.93;6.47;;;18.00;99.90;;;;;;5090403;28;20466;-47
2023/05/27 08:17:05;;;;;;;9.73;7.20;;;18.00;99.90;;;;;;5090342;28;20546;-47
2023/05/27 08:19:32;;;;;;;9.40;5.77;;;18.10;99.90;;;;;;5090085;28;20443;-48
2023/05/27 08:21:59;;;;;;;11.10;5.73;;;18.10;99.90;;;;;;5089492;28;20487;-45
2023/05/27 08:24:27;;;;;;;8.90;5.83;;;18.10;99.90;;;;;;5089607;28;20498;-45
2023/05/27 08:26:54;;;;;;;7.00;5.90;;;18.30;99.90;;;;;;5089057;28;20446;-45
2023/05/27 08:29:21;;;;;;;11.40;6.77;;;18.30;99.90;;;;;;5089349;28;20543;-45
2023/05/27 08:31:51;;;;;;;7.90;5.47;;;18.60;99.90;;;;;;5087588;28;20462;-45
2023/05/27 08:34:18;;;;;;;8.80;6.80;;;18.70;99.90;;;;;;5089704;28;20815;-45
2023/05/27 08:36:45;;;;;;;8.73;6.30;;;18.70;99.90;;;;;;5087727;28;20563;-46
2023/05/27 08:39:13;;;;;;;10.33;7.27;;;18.80;99.90;;;;;;5090157;28;20606;-45
2023/05/27 08:41:40;;;;;;;8.50;6.53;;;;;;;;;;5087262;28;20481;-46
2023/05/27 08:44:07;;;;;;;7.50;6.43;;;;;;;;;;5090453;28;20540;-43
2023/05/27 08:46:36;;;;;;;11.93;6.87;;;18.70;99.90;;;;;;5089440;28;20532;-44
2023/05/27 08:49:06;;;;;;;12.03;6.80;;;;;;;;;;5090101;28;20446;-43
2023/05/27 08:51:33;;;;;;;7.40;5.97;;;;;;;;;;5090061;28;20475;-44
2023/05/27 08:54:01;;;;;;;7.10;5.90;;;;;;;;;;5089087;28;20462;-44
2023/05/27 08:56:30;;;;;;;8.47;6.10;;;;;;;;;;5088909;28;21005;-43
2023/05/27 08:58:58;;;;;;;8.97;7.23;;;;;;;;;;5087322;28;20951;-44
2023/05/27 09:01:27;;;;;;;7.40;5.87;;;;;;;;;;5089704;28;20471;-45
2023/05/27 09:03:55;;;;;;;12.57;6.07;;;;;;;;;;5087868;28;20546;-46
2023/05/27 09:06:24;;;;;;;7.90;6.20;;;;;;;;;;5088690;28;20534;-43
2023/05/27 09:08:51;;;;;;;6.23;5.63;;;;;;;;;;5092934;28;20801;-44
2023/05/27 09:11:23;;;;;;;11.27;6.20;;;;;;;;;;5093386;28;20563;-46
2023/05/27 09:13:50;;;;;;;9.63;5.33;;;;;;;;;;5092609;28;20502;-47
2023/05/27 09:16:21;;;;;;;6.93;5.07;;;;;;;;;;5092923;28;20530;-44
2023/05/27 09:18:49;;;;;;;6.90;5.20;;;;;;;;;;5092776;28;20992;-44
2023/05/27 09:21:17;;;;;;;7.37;4.90;;;;;;;;;;5092502;28;20439;-44
2023/05/27 09:23:46;;;;;;;7.30;4.90;;;21.30;99.90;;;;;;5092281;28;20467;-48
2023/05/27 09:26:14;;;;;;;7.57;5.47;;;21.40;99.90;;;;;;5092354;28;20444;-46
2023/05/27 09:28:43;;;;;;;8.70;5.53;;;21.30;99.90;;;;;;5092550;28;20448;-44
2023/05/27 09:31:10;;;;;;;7.60;4.97;;;21.40;99.90;;;;;;5089348;28;20533;-46
2023/05/27 09:33:39;;;;;;;8.03;5.40;;;21.50;99.90;;;;;;5092620;28;20553;-44
2023/05/27 09:36:08;;;;;;;7.57;5.40;;;21.60;99.90;;;;;;5092390;28;20443;-45
2023/05/27 09:38:36;;;;;;;7.37;4.80;;;21.60;99.90;;;;;;5092018;28;20447;-45
2023/05/27 09:41:04;;;;;;;6.43;5.20;;;21.70;99.90;;;;;;5090822;28;20524;-45
2023/05/27 09:43:31;;;;;;;6.50;4.93;;;21.90;99.90;;;;;;5091854;28;20510;-44
2023/05/27 09:46:01;;;;;;;7.47;5.00;;;21.90;99.90;;;;;;5091739;28;20502;-48
2023/05/27 09:48:30;;;;;;;14.90;6.50;;;21.90;99.90;;;;;;5092396;28;20442;-43
2023/05/27 09:50:58;;;;;;;10.03;5.10;;;21.90;99.90;;;;;;5092466;28;20444;-45
2023/05/27 09:53:26;;;;;;;5.30;4.00;;;21.90;99.90;;;;;;5091553;28;20489;-46
2023/05/27 09:55:54;;;;;;;6.80;5.80;;;21.90;99.90;;;;;;5091983;28;20753;-46
2023/05/27 09:58:23;;;;;;;8.63;5.70;;;21.90;99.90;;;;;;5090653;28;20471;-48
2023/05/27 10:00:51;;;;;;;6.60;5.40;;;22.00;99.90;;;;;;5092663;28;20529;-45
2023/05/27 10:03:21;;;;;;;6.80;4.53;;;21.90;99.90;;;;;;5091904;28;20557;-44
2023/05/27 10:05:50;;;;;;;6.10;4.77;;;22.00;99.90;;;;;;5092258;28;20475;-44
2023/05/27 10:08:17;;;;;;;8.80;4.73;;;21.90;99.90;;;;;;5092213;28;20443;-44
2023/05/27 10:10:45;;;;;;;8.10;5.13;;;22.00;99.90;;;;;;5092150;28;20549;-45
2023/05/27 10:13:16;;;;;;;6.83;5.23;;;22.20;99.90;;;;;;5091620;28;20557;-44
2023/05/27 10:15:49;;;;;;;7.13;5.17;;;22.20;99.90;;;;;;5091633;28;20448;-44
2023/05/27 10:18:23;;;;;;;22.77;6.17;;;22.10;99.90;;;;;;5091750;28;20449;-45
2023/05/27 10:20:51;;;;;;;6.33;4.50;;;22.10;99.90;;;;;;5092515;28;20936;-47
2023/05/27 10:23:21;;;;;;;9.30;5.63;;;21.80;99.90;;;;;;5091950;28;21009;-43
2023/05/27 10:25:49;;;;;;;6.40;4.30;;;21.80;99.90;;;;;;5092179;28;20444;-44
2023/05/27 10:28:27;;;;;;;12.43;6.53;;;21.90;99.90;;;;;;5092640;28;20435;-43
2023/05/27 10:31:04;;;;;;;6.63;5.07;;;21.90;99.90;;;;;;5090419;28;20442;-45
2023/05/27 10:33:34;;;;;;;7.90;6.20;;;22.10;99.90;;;;;;5092071;28;20521;-44
2023/05/27 10:36:05;;;;;;;17.13;5.57;;;22.10;99.90;;;;;;5091745;28;20444;-46
2023/05/27 10:38:32;;;;;;;15.80;6.10;;;22.00;99.90;;;;;;5092256;28;20472;-44
2023/05/27 10:41:01;;;;;;;8.70;5.47;;;21.90;99.90;;;;;;5090357;28;20519;-48
2023/05/27 10:43:29;;;;;;;7.33;4.80;;;21.80;99.90;;;;;;5091380;28;20482;-44
2023/05/27 10:46:05;;;;;;;6.30;5.03;;;21.90;99.90;;;;;;5089926;28;20450;-46
2023/05/27 10:48:33;;;;;;;4.93;4.43;;;21.90;99.90;;;;;;5092068;28;20448;-48
2023/05/27 10:51:00;;;;;;;6.17;4.17;;;21.90;99.90;;;;;;5088015;28;20452;-46
2023/05/27 10:53:28;;;;;;;6.80;4.53;;;22.10;99.90;;;;;;5075701;28;20551;-45
2023/05/27 10:55:57;;;;;;;5.93;4.70;;;22.20;99.90;;;;;;5081830;28;20482;-44
2023/05/27 10:58:24;;;;;;;6.80;4.80;;;22.20;99.90;;;;;;5081478;28;20527;-46
2023/05/27 11:00:53;;;;;;;8.40;4.80;;;22.10;99.90;;;;;;5091590;28;20495;-46
2023/05/27 11:03:23;;;;;;;6.57;4.30;;;22.20;99.90;;;;;;5090189;28;20582;-46
2023/05/27 11:06:00;;;;;;;17.90;6.57;;;22.30;99.90;;;;;;5090836;28;20948;-46
2023/05/27 11:08:27;;;;;;;6.30;4.47;;;22.40;99.90;;;;;;5090539;28;20440;-50
2023/05/27 11:10:59;;;;;;;6.60;4.47;;;22.30;99.90;;;;;;5090940;28;20531;-46
2023/05/27 11:13:31;;;;;;;6.03;4.37;;;22.20;99.90;;;;;;5081924;28;20455;-47
2023/05/27 11:15:58;;;;;;;6.70;4.70;;;22.20;99.90;;;;;;5090812;28;20466;-45
2023/05/27 11:18:34;;;;;;;7.40;4.30;;;22.10;99.90;;;;;;5091420;28;20472;-50
2023/05/27 11:21:02;;;;;;;6.40;4.23;;;22.10;99.90;;;;;;5091214;28;20443;-49
2023/05/27 11:23:36;;;;;;;8.70;4.97;;;22.30;99.90;;;;;;5090364;28;20483;-49
2023/05/27 11:26:03;;;;;;;18.60;6.63;;;22.20;99.90;;;;;;5089892;28;20440;-47
2023/05/27 11:28:30;;;;;;;6.67;4.53;;;22.40;99.90;;;;;;5090606;28;20468;-49
2023/05/27 11:31:00;;;;;;;7.57;4.47;;;22.30;99.90;;;;;;5088292;28;20526;-46
2023/05/27 11:33:33;;;;;;;6.70;4.20;;;22.40;99.90;;;;;;5102437;22;20581;-85
2023/05/27 11:36:07;;;;;;;6.80;4.13;;;22.40;99.90;;;;;;5101658;28;20475;-84
2023/05/27 11:38:47;;;;;;;6.93;4.50;;;22.40;99.90;;;;;;5092179;28;20431;-83
2023/05/27 11:41:14;;;;;;;6.13;4.40;;;22.50;99.90;;;;;;5106120;28;20463;-80
2023/05/27 11:43:48;;;;;;;5.47;4.13;;;22.50;99.90;;;;;;5107155;28;20473;-85
2023/05/27 11:46:15;;;;;;;8.57;4.50;;;22.50;99.90;;;;;;5098983;28;20936;-89
2023/05/27 11:48:44;;;;;;;6.07;4.30;;;22.60;99.90;;;;;;5099248;28;20481;-86
2023/05/27 11:51:11;;;;;;;7.60;4.57;;;22.60;99.90;;;;;;5111997;28;20542;-88
2023/05/27 11:53:41;;;;;;;6.07;4.30;;;22.50;99.90;;;;;;5098029;28;20450;-88
2023/05/27 11:56:08;;;;;;;6.20;4.40;;;22.70;99.90;;;;;;5101202;28;20462;-88
2023/05/27 11:58:36;;;;;;;6.53;4.70;;;22.70;99.90;;;;;;5098161;28;20767;-88
2023/05/27 12:01:03;;;;;;;6.00;4.27;;;22.70;99.90;;;;;;5099431;28;20480;-88
2023/05/27 12:03:31;;;;;;;6.90;4.80;;;22.80;99.90;;;;;;5111209;28;20478;-89
2023/05/27 12:05:59;;;;;;;7.17;4.57;;;22.80;99.90;;;;;;5111473;28;20533;-88
2023/05/27 12:08:26;;;;;;;6.97;4.70;;;22.80;99.90;;;;;;5107665;28;20451;-88
2023/05/27 12:10:54;;;;;;;6.00;4.67;;;22.70;99.90;;;;;;5105567;28;20499;-88
2023/05/27 12:13:22;;;;;;;7.20;4.43;;;22.80;99.90;;;;;;5100342;28;20852;-89
2023/05/27 12:15:50;;;;;;;6.00;4.30;;;22.90;99.90;;;;;;5097090;28;20452;-89
2023/05/27 12:18:17;;;;;;;6.53;4.10;;;22.90;99.90;;;;;;5108575;28;20435;-89
2023/05/27 12:20:45;;;;;;;5.60;4.60;;;22.90;99.90;;;;;;5106107;28;20955;-88
2023/05/27 12:23:13;;;;;;;8.63;4.80;;;22.90;99.90;;;;;;5109535;28;21043;-88
2023/05/27 12:25:41;;;;;;;6.50;3.97;;;22.90;99.90;;;;;;5104733;28;20507;-88
2023/05/27 12:28:09;;;;;;;5.40;3.97;;;22.90;99.90;;;;;;5111479;28;20522;-88
2023/05/27 12:30:36;;;;;;;6.50;4.63;;;22.90;99.90;;;;;;5110139;28;20862;-89
2023/05/27 12:33:03;;;;;;;5.97;4.27;;;22.90;99.90;;;;;;5110462;28;20550;-88
2023/05/27 12:35:31;;;;;;;7.80;4.63;;;22.90;99.90;;;;;;5110288;28;20482;-89
2023/05/27 12:37:57;;;;;;;5.93;4.70;;;22.90;99.90;;;;;;5095575;28;20706;-88
2023/05/27 12:40:28;;;;;;;4.87;3.70;;;23.00;99.90;;;;;;5099227;28;20491;-88
2023/05/27 12:42:55;;;;;;;7.73;4.80;;;23.10;99.90;;;;;;5110038;28;20509;-88
2023/05/27 12:45:24;;;;;;;7.47;4.47;;;23.10;99.90;;;;;;5103616;28;20952;-89
2023/05/27 12:47:51;;;;;;;5.67;4.43;;;22.90;99.90;;;;;;5094878;28;20501;-88
2023/05/27 12:50:19;;;;;;;4.60;3.77;;;23.10;99.90;;;;;;5094995;28;20467;-89
2023/05/27 12:52:47;;;;;;;4.77;3.80;;;23.00;99.30;;;;;;5106214;28;20446;-88
2023/05/27 12:55:15;;;;;;;5.07;4.43;;;23.00;99.90;;;;;;5103534;28;20448;-89